createdAt,value
2023-04-27T00:00:01.662Z,1015.37
2023-04-27T00:01:01.530Z,1015.36
2023-04-27T00:02:01.590Z,1015.36
2023-04-27T00:03:01.928Z,1015.36
2023-04-27T00:04:01.701Z,1015.37
2023-04-27T00:05:01.699Z,1015.37
2023-04-27T00:06:01.551Z,1015.38
2023-04-27T00:07:01.531Z,1015.36
2023-04-27T00:08:01.499Z,1015.36
2023-04-27T00:09:01.544Z,1015.36
2023-04-27T00:10:01.459Z,1015.33
2023-04-27T00:11:01.590Z,1015.32
2023-04-27T00:12:01.478Z,1015.31
2023-04-27T00:13:01.417Z,1015.30
2023-04-27T00:14:01.479Z,1015.29
2023-04-27T00:15:01.395Z,1015.30
2023-04-27T00:16:01.446Z,1015.30
2023-04-27T00:17:01.437Z,1015.31
2023-04-27T00:18:01.603Z,1015.32
2023-04-27T00:19:01.403Z,1015.33
2023-04-27T00:20:01.415Z,1015.34
2023-04-27T00:21:01.388Z,1015.36
2023-04-27T00:22:01.381Z,1015.37
2023-04-27T00:23:01.316Z,1015.39
2023-04-27T00:24:01.330Z,1015.40
2023-04-27T00:25:01.334Z,1015.41
2023-04-27T00:26:01.303Z,1015.42
2023-04-27T00:27:01.289Z,1015.43
2023-04-27T00:28:01.356Z,1015.42
2023-04-27T00:29:01.289Z,1015.41
2023-04-27T00:30:01.305Z,1015.41
2023-04-27T00:31:01.237Z,1015.39
2023-04-27T00:32:01.265Z,1015.39
2023-04-27T00:33:01.287Z,1015.39
2023-04-27T00:34:01.241Z,1015.41
2023-04-27T00:35:01.212Z,1015.42
2023-04-27T00:36:01.190Z,1015.42
2023-04-27T00:37:01.239Z,1015.44
2023-04-27T00:38:01.233Z,1015.43
2023-04-27T00:39:01.276Z,1015.45
2023-04-27T00:40:01.135Z,1015.45
2023-04-27T00:41:01.147Z,1015.46
2023-04-27T00:42:01.126Z,1015.46
2023-04-27T00:43:01.160Z,1015.46
2023-04-27T00:44:01.113Z,1015.48
2023-04-27T00:45:01.194Z,1015.48
2023-04-27T00:46:01.182Z,1015.50
2023-04-27T00:47:01.088Z,1015.50
2023-04-27T00:48:01.188Z,1015.51
2023-04-27T00:49:01.053Z,1015.50
2023-04-27T00:50:01.131Z,1015.51
2023-04-27T00:51:01.035Z,1015.51
2023-04-27T00:52:01.031Z,1015.53
2023-04-27T00:53:01.004Z,1015.54
2023-04-27T00:54:01.026Z,1015.56
2023-04-27T00:55:01.021Z,1015.59
2023-04-27T00:56:01.033Z,1015.62
2023-04-27T00:57:01.007Z,1015.64
2023-04-27T00:58:00.948Z,1015.65
2023-04-27T00:59:00.959Z,1015.66
2023-04-27T01:00:01.058Z,1015.66
2023-04-27T01:01:00.966Z,1015.64
2023-04-27T01:02:01.001Z,1015.63
2023-04-27T01:03:01.115Z,1015.63
2023-04-27T01:04:01.141Z,1015.63
2023-04-27T01:05:00.872Z,1015.63
2023-04-27T01:06:00.917Z,1015.64
2023-04-27T01:07:00.901Z,1015.65
2023-04-27T01:08:00.908Z,1015.66
2023-04-27T01:09:00.834Z,1015.67
2023-04-27T01:10:00.861Z,1015.68
2023-04-27T01:11:00.821Z,1015.68
2023-04-27T01:12:00.862Z,1015.70
2023-04-27T01:13:00.852Z,1015.69
2023-04-27T01:14:00.821Z,1015.69
2023-04-27T01:15:00.817Z,1015.71
2023-04-27T01:16:00.815Z,1015.72
2023-04-27T01:17:00.797Z,1015.75
2023-04-27T01:18:00.853Z,1015.78
2023-04-27T01:19:00.795Z,1015.80
2023-04-27T01:20:00.810Z,1015.82
2023-04-27T01:21:00.765Z,1015.82
2023-04-27T01:22:00.777Z,1015.82
2023-04-27T01:23:00.754Z,1015.80
2023-04-27T01:24:00.730Z,1015.79
2023-04-27T01:25:00.679Z,1015.79
2023-04-27T01:26:00.731Z,1015.78
2023-04-27T01:27:00.759Z,1015.80
2023-04-27T01:28:00.709Z,1015.81
2023-04-27T01:29:00.663Z,1015.81
2023-04-27T01:30:00.736Z,1015.80
2023-04-27T01:31:00.677Z,1015.79
2023-04-27T01:32:01.601Z,1015.79
2023-04-27T01:33:00.681Z,1015.77
2023-04-27T01:34:00.631Z,1015.78
2023-04-27T01:35:00.654Z,1015.77
2023-04-27T01:36:00.643Z,1015.80
2023-04-27T01:37:00.669Z,1015.80
2023-04-27T01:38:00.570Z,1015.80
2023-04-27T01:39:00.553Z,1015.80
2023-04-27T01:40:00.801Z,1015.81
2023-04-27T01:41:00.506Z,1015.81
2023-04-27T01:42:00.742Z,1015.82
2023-04-27T01:43:00.632Z,1015.83
2023-04-27T01:44:00.506Z,1015.85
2023-04-27T01:45:00.512Z,1015.86
2023-04-27T01:46:00.681Z,1015.87
2023-04-27T01:47:00.482Z,1015.88
2023-04-27T01:48:00.477Z,1015.89
2023-04-27T01:49:00.519Z,1015.88
2023-04-27T01:50:00.461Z,1015.88
2023-04-27T01:51:00.458Z,1015.88
2023-04-27T01:52:00.415Z,1015.88
2023-04-27T01:53:00.391Z,1015.87
2023-04-27T01:54:00.507Z,1015.87
2023-04-27T01:55:00.427Z,1015.86
2023-04-27T01:56:00.488Z,1015.87
2023-04-27T01:57:00.455Z,1015.86
2023-04-27T01:58:00.388Z,1015.87
2023-04-27T01:59:00.366Z,1015.87
2023-04-27T02:00:00.378Z,1015.88
2023-04-27T02:01:00.365Z,1015.89
2023-04-27T02:02:00.466Z,1015.90
2023-04-27T02:03:00.550Z,1015.91
2023-04-27T02:04:00.670Z,1015.93
2023-04-27T02:05:00.312Z,1015.93
2023-04-27T02:06:00.288Z,1015.93
2023-04-27T02:07:00.330Z,1015.92
2023-04-27T02:08:00.321Z,1015.91
2023-04-27T02:09:00.277Z,1015.90
2023-04-27T02:10:00.288Z,1015.90
2023-04-27T02:11:00.217Z,1015.90
2023-04-27T02:12:00.221Z,1015.90
2023-04-27T02:13:00.179Z,1015.90
2023-04-27T02:14:00.282Z,1015.90
2023-04-27T02:15:00.198Z,1015.90
2023-04-27T02:16:00.220Z,1015.90
2023-04-27T02:17:00.157Z,1015.89
2023-04-27T02:18:00.300Z,1015.88
2023-04-27T02:19:00.159Z,1015.88
2023-04-27T02:20:00.202Z,1015.88
2023-04-27T02:21:00.131Z,1015.89
2023-04-27T02:22:00.157Z,1015.90
2023-04-27T02:23:00.143Z,1015.91
2023-04-27T02:24:00.143Z,1015.91
2023-04-27T02:25:00.068Z,1015.91
2023-04-27T02:26:00.056Z,1015.90
2023-04-27T02:27:00.354Z,1015.90
2023-04-27T02:28:00.105Z,1015.88
2023-04-27T02:29:00.039Z,1015.86
2023-04-27T02:30:00.034Z,1015.84
2023-04-27T02:30:59.993Z,1015.82
2023-04-27T02:32:00.256Z,1015.80
2023-04-27T02:33:00.018Z,1015.80
2023-04-27T02:34:00.020Z,1015.80
2023-04-27T02:34:59.984Z,1015.79
2023-04-27T02:35:59.973Z,1015.79
2023-04-27T02:36:59.985Z,1015.78
2023-04-27T02:37:59.919Z,1015.77
2023-04-27T02:38:59.979Z,1015.76
2023-04-27T02:39:59.910Z,1015.75
2023-04-27T02:40:59.931Z,1015.73
2023-04-27T02:41:59.897Z,1015.74
2023-04-27T02:42:59.973Z,1015.75
2023-04-27T02:43:59.928Z,1015.77
2023-04-27T02:44:59.960Z,1015.79
2023-04-27T02:45:59.924Z,1015.79
2023-04-27T02:46:59.959Z,1015.80
2023-04-27T02:47:59.880Z,1015.79
2023-04-27T02:48:59.824Z,1015.77
2023-04-27T02:49:59.865Z,1015.75
2023-04-27T02:51:00.152Z,1015.74
2023-04-27T02:51:59.864Z,1015.73
2023-04-27T02:52:59.791Z,1015.75
2023-04-27T02:53:59.815Z,1015.76
2023-04-27T02:54:59.802Z,1015.76
2023-04-27T02:55:59.782Z,1015.73
2023-04-27T02:56:59.728Z,1015.71
2023-04-27T02:57:59.812Z,1015.69
2023-04-27T02:58:59.864Z,1015.67
2023-04-27T02:59:59.774Z,1015.67
2023-04-27T03:00:59.760Z,1015.67
2023-04-27T03:01:59.743Z,1015.68
2023-04-27T03:02:59.857Z,1015.68
2023-04-27T03:04:00.020Z,1015.68
2023-04-27T03:04:59.684Z,1015.69
2023-04-27T03:05:59.696Z,1015.69
2023-04-27T03:06:59.687Z,1015.70
2023-04-27T03:07:59.723Z,1015.71
2023-04-27T03:08:59.753Z,1015.72
2023-04-27T03:09:59.686Z,1015.71
2023-04-27T03:10:59.610Z,1015.71
2023-04-27T03:11:59.709Z,1015.71
2023-04-27T03:12:59.633Z,1015.69
2023-04-27T03:13:59.594Z,1015.68
2023-04-27T03:14:59.575Z,1015.67
2023-04-27T03:15:59.751Z,1015.66
2023-04-27T03:16:59.720Z,1015.65
2023-04-27T03:17:59.881Z,1015.65
2023-04-27T03:18:59.582Z,1015.65
2023-04-27T03:19:59.506Z,1015.64
2023-04-27T03:20:59.598Z,1015.62
2023-04-27T03:21:59.837Z,1015.62
2023-04-27T03:22:59.629Z,1015.60
2023-04-27T03:23:59.496Z,1015.59
2023-04-27T03:24:59.520Z,1015.58
2023-04-27T03:25:59.575Z,1015.57
2023-04-27T03:26:59.618Z,1015.55
2023-04-27T03:27:59.516Z,1015.54
2023-04-27T03:28:59.441Z,1015.55
2023-04-27T03:29:59.382Z,1015.56
2023-04-27T03:30:59.551Z,1015.58
2023-04-27T03:31:59.820Z,1015.58
2023-04-27T03:32:59.519Z,1015.58
2023-04-27T03:33:59.321Z,1015.59
2023-04-27T03:34:59.321Z,1015.60
2023-04-27T03:35:59.405Z,1015.61
2023-04-27T03:36:59.408Z,1015.61
2023-04-27T03:37:59.571Z,1015.60
2023-04-27T03:38:59.265Z,1015.61
2023-04-27T03:39:59.820Z,1015.62
2023-04-27T03:40:59.464Z,1015.63
2023-04-27T03:41:59.402Z,1015.64
2023-04-27T03:42:59.342Z,1015.65
2023-04-27T03:43:59.206Z,1015.67
2023-04-27T03:44:59.215Z,1015.68
2023-04-27T03:45:59.303Z,1015.70
2023-04-27T03:46:59.540Z,1015.71
2023-04-27T03:47:59.235Z,1015.73
2023-04-27T03:48:59.170Z,1015.75
2023-04-27T03:49:59.172Z,1015.77
2023-04-27T03:50:59.247Z,1015.79
2023-04-27T03:51:59.139Z,1015.82
2023-04-27T03:52:59.224Z,1015.84
2023-04-27T03:53:59.103Z,1015.85
2023-04-27T03:54:59.165Z,1015.86
2023-04-27T03:55:59.572Z,1015.85
2023-04-27T03:56:59.140Z,1015.84
2023-04-27T03:57:59.092Z,1015.84
2023-04-27T03:58:59.100Z,1015.84
2023-04-27T03:59:59.078Z,1015.85
2023-04-27T04:00:59.037Z,1015.87
2023-04-27T04:02:01.137Z,1015.88
2023-04-27T04:02:59.145Z,1015.89
2023-04-27T04:03:59.239Z,1015.91
2023-04-27T04:04:59.175Z,1015.91
2023-04-27T04:05:59.035Z,1015.91
2023-04-27T04:06:58.989Z,1015.91
2023-04-27T04:07:58.977Z,1015.93
2023-04-27T04:08:58.974Z,1015.93
2023-04-27T04:09:58.971Z,1015.92
2023-04-27T04:10:58.937Z,1015.92
2023-04-27T04:11:58.913Z,1015.92
2023-04-27T04:12:58.998Z,1015.92
2023-04-27T04:13:58.898Z,1015.93
2023-04-27T04:14:58.911Z,1015.93
2023-04-27T04:15:58.925Z,1015.94
2023-04-27T04:16:58.885Z,1015.96
2023-04-27T04:17:58.934Z,1015.98
2023-04-27T04:18:58.857Z,1015.99
2023-04-27T04:19:58.850Z,1016.01
2023-04-27T04:20:58.847Z,1016.03
2023-04-27T04:21:58.867Z,1016.03
2023-04-27T04:22:58.821Z,1016.01
2023-04-27T04:23:58.820Z,1016.00
2023-04-27T04:24:58.816Z,1015.99
2023-04-27T04:25:58.787Z,1015.98
2023-04-27T04:26:58.824Z,1015.96
2023-04-27T04:27:58.743Z,1015.96
2023-04-27T04:28:58.773Z,1015.96
2023-04-27T04:29:58.765Z,1015.97
2023-04-27T04:30:58.780Z,1015.97
2023-04-27T04:31:58.714Z,1016.00
2023-04-27T04:32:58.761Z,1016.01
2023-04-27T04:33:58.759Z,1016.02
2023-04-27T04:34:58.722Z,1016.02
2023-04-27T04:35:58.693Z,1016.03
2023-04-27T04:36:58.707Z,1016.04
2023-04-27T04:37:58.649Z,1016.06
2023-04-27T04:38:58.680Z,1016.08
2023-04-27T04:39:58.635Z,1016.11
2023-04-27T04:40:58.657Z,1016.12
2023-04-27T04:41:58.624Z,1016.13
2023-04-27T04:42:58.740Z,1016.13
2023-04-27T04:43:58.589Z,1016.13
2023-04-27T04:44:58.618Z,1016.13
2023-04-27T04:45:58.603Z,1016.14
2023-04-27T04:46:58.586Z,1016.14
2023-04-27T04:47:58.679Z,1016.15
2023-04-27T04:48:58.590Z,1016.17
2023-04-27T04:49:58.549Z,1016.17
2023-04-27T04:50:58.589Z,1016.17
2023-04-27T04:51:58.558Z,1016.17
2023-04-27T04:52:58.498Z,1016.17
2023-04-27T04:53:59.834Z,1016.17
2023-04-27T04:54:58.485Z,1016.17
2023-04-27T04:55:58.486Z,1016.16
2023-04-27T04:56:58.506Z,1016.15
2023-04-27T04:57:58.493Z,1016.14
2023-04-27T04:58:58.454Z,1016.14
2023-04-27T04:59:58.427Z,1016.14
2023-04-27T05:00:58.413Z,1016.13
2023-04-27T05:01:58.483Z,1016.12
2023-04-27T05:02:58.542Z,1016.10
2023-04-27T05:03:58.605Z,1016.10
2023-04-27T05:04:58.506Z,1016.09
2023-04-27T05:05:58.361Z,1016.08
2023-04-27T05:06:58.373Z,1016.08
2023-04-27T05:07:58.387Z,1016.07
2023-04-27T05:08:58.361Z,1016.07
2023-04-27T05:09:58.333Z,1016.08
2023-04-27T05:10:58.346Z,1016.09
2023-04-27T05:11:58.335Z,1016.10
2023-04-27T05:12:58.351Z,1016.12
2023-04-27T05:13:58.298Z,1016.14
2023-04-27T05:14:58.283Z,1016.14
2023-04-27T05:15:58.343Z,1016.16
2023-04-27T05:16:58.262Z,1016.19
2023-04-27T05:17:58.270Z,1016.22
2023-04-27T05:18:58.250Z,1016.24
2023-04-27T05:19:58.236Z,1016.26
2023-04-27T05:20:58.260Z,1016.29
2023-04-27T05:21:58.260Z,1016.31
2023-04-27T05:22:58.267Z,1016.32
2023-04-27T05:23:58.191Z,1016.33
2023-04-27T05:24:58.232Z,1016.33
2023-04-27T05:25:58.196Z,1016.34
2023-04-27T05:26:59.249Z,1016.34
2023-04-27T05:27:58.152Z,1016.34
2023-04-27T05:28:58.642Z,1016.33
2023-04-27T05:29:58.164Z,1016.34
2023-04-27T05:30:58.173Z,1016.34
2023-04-27T05:31:58.411Z,1016.34
2023-04-27T05:32:58.157Z,1016.35
2023-04-27T05:33:58.100Z,1016.36
2023-04-27T05:34:58.145Z,1016.37
2023-04-27T05:35:58.081Z,1016.38
2023-04-27T05:36:58.064Z,1016.39
2023-04-27T05:37:58.058Z,1016.39
2023-04-27T05:38:58.071Z,1016.40
2023-04-27T05:39:58.026Z,1016.40
2023-04-27T05:40:58.017Z,1016.42
2023-04-27T05:41:58.077Z,1016.44
2023-04-27T05:42:58.016Z,1016.46
2023-04-27T05:43:58.023Z,1016.47
2023-04-27T05:44:57.988Z,1016.48
2023-04-27T05:45:58.018Z,1016.48
2023-04-27T05:46:57.959Z,1016.49
2023-04-27T05:47:57.988Z,1016.50
2023-04-27T05:48:57.949Z,1016.52
2023-04-27T05:49:57.951Z,1016.55
2023-04-27T05:50:57.930Z,1016.56
2023-04-27T05:51:57.916Z,1016.57
2023-04-27T05:52:57.940Z,1016.57
2023-04-27T05:53:57.920Z,1016.59
2023-04-27T05:54:57.908Z,1016.59
2023-04-27T05:55:57.887Z,1016.60
2023-04-27T05:56:57.878Z,1016.59
2023-04-27T05:58:07.054Z,1016.58
2023-04-27T05:58:57.946Z,1016.59
2023-04-27T05:59:57.831Z,1016.59
2023-04-27T06:00:57.908Z,1016.58
2023-04-27T06:01:57.893Z,1016.58
2023-04-27T06:02:58.029Z,1016.58
2023-04-27T06:03:57.871Z,1016.60
2023-04-27T06:04:57.824Z,1016.61
2023-04-27T06:05:59.069Z,1016.63
2023-04-27T06:06:57.761Z,1016.64
2023-04-27T06:07:57.732Z,1016.65
2023-04-27T06:08:57.740Z,1016.66
2023-04-27T06:09:57.733Z,1016.66
2023-04-27T06:10:57.773Z,1016.66
2023-04-27T06:11:57.708Z,1016.67
2023-04-27T06:12:57.722Z,1016.67
2023-04-27T06:13:57.692Z,1016.67
2023-04-27T06:14:57.723Z,1016.67
2023-04-27T06:15:57.724Z,1016.66
2023-04-27T06:16:57.701Z,1016.67
2023-04-27T06:17:57.652Z,1016.67
2023-04-27T06:18:57.625Z,1016.69
2023-04-27T06:19:57.644Z,1016.71
2023-04-27T06:20:57.620Z,1016.73
2023-04-27T06:21:57.605Z,1016.75
2023-04-27T06:22:57.586Z,1016.78
2023-04-27T06:23:57.618Z,1016.79
2023-04-27T06:24:57.603Z,1016.80
2023-04-27T06:25:57.590Z,1016.80
2023-04-27T06:26:57.576Z,1016.81
2023-04-27T06:27:57.794Z,1016.80
2023-04-27T06:28:57.597Z,1016.78
2023-04-27T06:29:57.541Z,1016.77
2023-04-27T06:30:57.577Z,1016.76
2023-04-27T06:31:57.578Z,1016.76
2023-04-27T06:32:57.523Z,1016.76
2023-04-27T06:33:57.495Z,1016.76
2023-04-27T06:34:57.500Z,1016.77
2023-04-27T06:35:57.453Z,1016.78
2023-04-27T06:36:57.483Z,1016.79
2023-04-27T06:37:57.425Z,1016.80
2023-04-27T06:38:57.431Z,1016.80
2023-04-27T06:39:57.425Z,1016.79
2023-04-27T06:40:57.434Z,1016.78
2023-04-27T06:41:57.466Z,1016.75
2023-04-27T06:42:57.429Z,1016.74
2023-04-27T06:43:58.697Z,1016.73
2023-04-27T06:44:57.367Z,1016.72
2023-04-27T06:45:57.365Z,1016.71
2023-04-27T06:46:57.373Z,1016.70
2023-04-27T06:47:57.381Z,1016.69
2023-04-27T06:48:57.322Z,1016.67
2023-04-27T06:49:57.321Z,1016.66
2023-04-27T06:50:57.301Z,1016.65
2023-04-27T06:51:57.316Z,1016.66
2023-04-27T06:52:57.280Z,1016.66
2023-04-27T06:53:57.303Z,1016.66
2023-04-27T06:54:57.278Z,1016.66
2023-04-27T06:55:57.239Z,1016.66
2023-04-27T06:56:57.308Z,1016.65
2023-04-27T06:57:57.324Z,1016.64
2023-04-27T06:58:57.236Z,1016.62
2023-04-27T06:59:57.223Z,1016.59
2023-04-27T07:00:57.179Z,1016.58
2023-04-27T07:01:57.281Z,1016.58
2023-04-27T07:02:57.238Z,1016.58
2023-04-27T07:03:57.331Z,1016.59
2023-04-27T07:04:57.280Z,1016.59
2023-04-27T07:05:57.202Z,1016.58
2023-04-27T07:06:57.638Z,1016.56
2023-04-27T07:07:57.119Z,1016.55
2023-04-27T07:08:57.175Z,1016.52
2023-04-27T07:09:57.092Z,1016.50
2023-04-27T07:10:57.156Z,1016.48
2023-04-27T07:11:57.080Z,1016.47
2023-04-27T07:12:57.083Z,1016.47
2023-04-27T07:13:57.134Z,1016.47
2023-04-27T07:14:57.102Z,1016.46
2023-04-27T07:15:57.109Z,1016.46
2023-04-27T07:16:57.061Z,1016.45
2023-04-27T07:17:57.095Z,1016.45
2023-04-27T07:18:57.055Z,1016.46
2023-04-27T07:19:57.028Z,1016.44
2023-04-27T07:20:57.005Z,1016.48
2023-04-27T07:21:56.973Z,1016.50
2023-04-27T07:22:56.982Z,1016.51
2023-04-27T07:23:56.953Z,1016.50
2023-04-27T07:24:56.971Z,1016.50
2023-04-27T07:25:56.938Z,1016.49
2023-04-27T07:26:56.947Z,1016.48
2023-04-27T07:27:56.976Z,1016.49
2023-04-27T07:28:56.910Z,1016.50
2023-04-27T07:29:56.933Z,1016.50
2023-04-27T07:30:56.924Z,1016.49
2023-04-27T07:31:56.920Z,1016.48
2023-04-27T07:32:56.912Z,1016.49
2023-04-27T07:33:56.851Z,1016.49
2023-04-27T07:34:56.837Z,1016.51
2023-04-27T07:35:56.870Z,1016.48
2023-04-27T07:36:56.808Z,1016.49
2023-04-27T07:37:56.812Z,1016.48
2023-04-27T07:38:56.785Z,1016.48
2023-04-27T07:39:56.809Z,1016.48
2023-04-27T07:40:56.790Z,1016.44
2023-04-27T07:41:56.784Z,1016.45
2023-04-27T07:42:56.736Z,1016.44
2023-04-27T07:43:56.757Z,1016.44
2023-04-27T07:44:56.725Z,1016.40
2023-04-27T07:45:56.813Z,1016.42
2023-04-27T07:46:56.738Z,1016.43
2023-04-27T07:47:58.774Z,1016.44
2023-04-27T07:48:56.718Z,1016.45
2023-04-27T07:49:56.691Z,1016.45
2023-04-27T07:50:56.651Z,1016.44
2023-04-27T07:51:56.659Z,1016.44
2023-04-27T07:52:56.660Z,1016.43
2023-04-27T07:53:56.680Z,1016.45
2023-04-27T07:54:56.624Z,1016.47
2023-04-27T07:55:56.694Z,1016.48
2023-04-27T07:56:56.585Z,1016.49
2023-04-27T07:57:56.733Z,1016.51
2023-04-27T07:58:56.622Z,1016.52
2023-04-27T07:59:56.567Z,1016.53
2023-04-27T08:00:56.574Z,1016.55
2023-04-27T08:02:07.001Z,1016.56
2023-04-27T08:02:57.053Z,1016.57
2023-04-27T08:03:56.822Z,1016.58
2023-04-27T08:04:56.900Z,1016.60
2023-04-27T08:05:56.673Z,1016.60
2023-04-27T08:06:56.705Z,1016.56
2023-04-27T08:07:56.555Z,1016.63
2023-04-27T08:08:56.477Z,1016.62
2023-04-27T08:09:56.463Z,1016.63
2023-04-27T08:10:56.501Z,1016.63
2023-04-27T08:11:56.462Z,1016.62
2023-04-27T08:12:56.499Z,1016.60
2023-04-27T08:13:56.453Z,1016.61
2023-04-27T08:14:56.417Z,1016.59
2023-04-27T08:15:56.438Z,1016.59
2023-04-27T08:16:56.547Z,1016.58
2023-04-27T08:17:56.437Z,1016.56
2023-04-27T08:18:57.991Z,1016.57
2023-04-27T08:19:56.357Z,1016.57
2023-04-27T08:20:56.349Z,1016.56
2023-04-27T08:21:56.346Z,1016.55
2023-04-27T08:22:56.329Z,1016.57
2023-04-27T08:23:56.424Z,1016.54
2023-04-27T08:24:56.388Z,1016.54
2023-04-27T08:25:56.318Z,1016.54
2023-04-27T08:26:56.311Z,1016.52
2023-04-27T08:27:56.323Z,1016.51
2023-04-27T08:28:56.255Z,1016.50
2023-04-27T08:29:56.291Z,1016.50
2023-04-27T08:30:56.323Z,1016.48
2023-04-27T08:31:57.030Z,1016.48
2023-04-27T08:32:56.282Z,1016.48
2023-04-27T08:33:56.250Z,1016.49
2023-04-27T08:34:56.199Z,1016.49
2023-04-27T08:35:56.271Z,1016.48
2023-04-27T08:36:56.229Z,1016.46
2023-04-27T08:37:56.206Z,1016.43
2023-04-27T08:38:56.194Z,1016.44
2023-04-27T08:39:56.183Z,1016.44
2023-04-27T08:40:56.167Z,1016.45
2023-04-27T08:41:56.144Z,1016.44
2023-04-27T08:42:56.143Z,1016.46
2023-04-27T08:43:57.351Z,1016.47
2023-04-27T08:44:56.129Z,1016.47
2023-04-27T08:45:56.116Z,1016.48
2023-04-27T08:46:56.072Z,1016.48
2023-04-27T08:47:56.119Z,1016.47
2023-04-27T08:48:56.148Z,1016.48
2023-04-27T08:49:56.086Z,1016.48
2023-04-27T08:50:56.030Z,1016.48
2023-04-27T08:51:56.042Z,1016.48
2023-04-27T08:52:56.053Z,1016.50
2023-04-27T08:53:56.014Z,1016.49
2023-04-27T08:54:56.050Z,1016.49
2023-04-27T08:55:55.990Z,1016.50
2023-04-27T08:56:55.966Z,1016.51
2023-04-27T08:57:56.021Z,1016.51
2023-04-27T08:58:55.972Z,1016.50
2023-04-27T08:59:56.060Z,1016.50
2023-04-27T09:00:56.006Z,1016.50
2023-04-27T09:01:56.028Z,1016.52
2023-04-27T09:02:56.108Z,1016.53
2023-04-27T09:03:56.291Z,1016.51
2023-04-27T09:04:56.097Z,1016.52
2023-04-27T09:06:04.334Z,1016.49
2023-04-27T09:06:55.855Z,1016.48
2023-04-27T09:07:55.949Z,1016.48
2023-04-27T09:08:55.852Z,1016.46
2023-04-27T09:09:55.858Z,1016.44
2023-04-27T09:10:55.834Z,1016.44
2023-04-27T09:11:55.863Z,1016.43
2023-04-27T09:12:55.864Z,1016.44
2023-04-27T09:13:55.812Z,1016.42
2023-04-27T09:14:55.786Z,1016.39
2023-04-27T09:15:55.786Z,1016.40
2023-04-27T09:16:55.791Z,1016.39
2023-04-27T09:17:55.813Z,1016.38
2023-04-27T09:18:55.749Z,1016.37
2023-04-27T09:19:55.748Z,1016.40
2023-04-27T09:20:55.697Z,1016.40
2023-04-27T09:21:55.741Z,1016.39
2023-04-27T09:22:55.721Z,1016.37
2023-04-27T09:23:55.678Z,1016.33
2023-04-27T09:24:55.937Z,1016.33
2023-04-27T09:25:55.912Z,1016.33
2023-04-27T09:26:55.668Z,1016.29
2023-04-27T09:27:55.646Z,1016.26
2023-04-27T09:28:55.713Z,1016.21
2023-04-27T09:29:55.618Z,1016.19
2023-04-27T09:30:55.599Z,1016.21
2023-04-27T09:31:55.639Z,1016.21
2023-04-27T09:32:55.624Z,1016.20
2023-04-27T09:33:55.580Z,1016.16
2023-04-27T09:34:55.549Z,1016.16
2023-04-27T09:35:55.577Z,1016.18
2023-04-27T09:36:55.585Z,1016.16
2023-04-27T09:37:55.575Z,1016.19
2023-04-27T09:38:55.529Z,1016.19
2023-04-27T09:39:55.524Z,1016.16
2023-04-27T09:40:55.509Z,1016.17
2023-04-27T09:41:55.517Z,1016.15
2023-04-27T09:42:55.487Z,1016.15
2023-04-27T09:43:57.685Z,1016.12
2023-04-27T09:44:55.484Z,1016.10
2023-04-27T09:45:55.483Z,1016.09
2023-04-27T09:46:55.450Z,1016.07
2023-04-27T09:47:55.492Z,1016.08
2023-04-27T09:48:55.408Z,1016.04
2023-04-27T09:49:55.582Z,1016.05
2023-04-27T09:50:56.153Z,1016.04
2023-04-27T09:51:55.570Z,1016.03
2023-04-27T09:52:55.475Z,1016.02
2023-04-27T09:53:55.455Z,1016.00
2023-04-27T09:54:55.397Z,1015.97
2023-04-27T09:55:55.361Z,1015.96
2023-04-27T09:56:55.375Z,1015.96
2023-04-27T09:57:55.312Z,1015.95
2023-04-27T09:58:55.343Z,1015.95
2023-04-27T09:59:55.300Z,1015.95
2023-04-27T10:00:55.349Z,1015.94
2023-04-27T10:01:55.299Z,1015.94
2023-04-27T10:02:55.340Z,1015.95
2023-04-27T10:03:55.427Z,1015.97
2023-04-27T10:04:55.391Z,1015.95
2023-04-27T10:05:55.260Z,1015.95
2023-04-27T10:06:57.218Z,1015.95
2023-04-27T10:07:55.228Z,1015.91
2023-04-27T10:08:55.213Z,1015.94
2023-04-27T10:09:55.219Z,1015.95
2023-04-27T10:10:55.181Z,1015.95
2023-04-27T10:11:55.191Z,1015.95
2023-04-27T10:12:55.164Z,1015.94
2023-04-27T10:13:55.331Z,1015.93
2023-04-27T10:14:55.156Z,1015.94
2023-04-27T10:15:55.126Z,1015.91
2023-04-27T10:16:55.125Z,1015.89
2023-04-27T10:17:55.155Z,1015.88
2023-04-27T10:18:55.103Z,1015.87
2023-04-27T10:19:57.379Z,1015.84
2023-04-27T10:20:55.137Z,1015.88
2023-04-27T10:21:55.131Z,1015.83
2023-04-27T10:22:55.146Z,1015.84
2023-04-27T10:23:55.095Z,1015.83
2023-04-27T10:24:55.043Z,1015.82
2023-04-27T10:25:55.037Z,1015.82
2023-04-27T10:26:55.029Z,1015.78
2023-04-27T10:27:55.038Z,1015.76
2023-04-27T10:28:54.993Z,1015.74
2023-04-27T10:29:54.998Z,1015.73
2023-04-27T10:30:54.987Z,1015.69
2023-04-27T10:31:54.987Z,1015.68
2023-04-27T10:32:55.032Z,1015.67
2023-04-27T10:33:54.956Z,1015.65
2023-04-27T10:34:54.953Z,1015.60
2023-04-27T10:35:54.946Z,1015.58
2023-04-27T10:36:54.920Z,1015.60
2023-04-27T10:37:54.927Z,1015.59
2023-04-27T10:38:54.875Z,1015.62
2023-04-27T10:39:55.068Z,1015.63
2023-04-27T10:40:54.907Z,1015.63
2023-04-27T10:41:54.880Z,1015.63
2023-04-27T10:42:54.861Z,1015.65
2023-04-27T10:43:54.854Z,1015.65
2023-04-27T10:44:54.830Z,1015.64
2023-04-27T10:45:54.838Z,1015.63
2023-04-27T10:46:55.044Z,1015.60
2023-04-27T10:47:54.829Z,1015.59
2023-04-27T10:48:55.409Z,1015.57
2023-04-27T10:49:55.842Z,1015.55
2023-04-27T10:50:55.093Z,1015.53
2023-04-27T10:51:54.780Z,1015.53
2023-04-27T10:52:54.820Z,1015.54
2023-04-27T10:53:54.730Z,1015.52
2023-04-27T10:54:54.709Z,1015.51
2023-04-27T10:55:54.720Z,1015.48
2023-04-27T10:56:54.707Z,1015.52
2023-04-27T10:57:54.722Z,1015.52
2023-04-27T10:58:54.675Z,1015.50
2023-04-27T10:59:54.692Z,1015.47
2023-04-27T11:00:54.657Z,1015.48
2023-04-27T11:01:54.711Z,1015.46
2023-04-27T11:02:54.762Z,1015.48
2023-04-27T11:03:54.659Z,1015.46
2023-04-27T11:04:54.655Z,1015.45
2023-04-27T11:05:55.186Z,1015.42
2023-04-27T11:06:54.591Z,1015.44
2023-04-27T11:07:54.580Z,1015.45
2023-04-27T11:08:54.555Z,1015.44
2023-04-27T11:09:54.600Z,1015.43
2023-04-27T11:10:54.613Z,1015.44
2023-04-27T11:11:54.538Z,1015.45
2023-04-27T11:12:54.537Z,1015.43
2023-04-27T11:13:54.593Z,1015.42
2023-04-27T11:14:54.498Z,1015.42
2023-04-27T11:15:54.545Z,1015.40
2023-04-27T11:16:54.472Z,1015.41
2023-04-27T11:17:54.523Z,1015.41
2023-04-27T11:18:54.489Z,1015.48
2023-04-27T11:19:54.460Z,1015.48
2023-04-27T11:20:54.538Z,1015.49
2023-04-27T11:21:54.430Z,1015.47
2023-04-27T11:22:54.415Z,1015.47
2023-04-27T11:23:54.435Z,1015.47
2023-04-27T11:24:54.390Z,1015.49
2023-04-27T11:25:54.433Z,1015.48
2023-04-27T11:26:54.384Z,1015.48
2023-04-27T11:27:54.453Z,1015.45
2023-04-27T11:28:54.365Z,1015.44
2023-04-27T11:29:54.342Z,1015.43
2023-04-27T11:30:54.363Z,1015.47
2023-04-27T11:31:54.331Z,1015.45
2023-04-27T11:32:54.330Z,1015.43
2023-04-27T11:33:56.096Z,1015.42
2023-04-27T11:34:55.527Z,1015.40
2023-04-27T11:35:54.293Z,1015.39
2023-04-27T11:36:58.662Z,1015.39
2023-04-27T11:37:54.331Z,1015.38
2023-04-27T11:38:54.320Z,1015.37
2023-04-27T11:39:54.242Z,1015.36
2023-04-27T11:40:54.295Z,1015.38
2023-04-27T11:41:54.202Z,1015.37
2023-04-27T11:42:54.237Z,1015.38
2023-04-27T11:43:54.201Z,1015.39
2023-04-27T11:44:54.203Z,1015.41
2023-04-27T11:45:54.169Z,1015.43
2023-04-27T11:46:54.206Z,1015.46
2023-04-27T11:47:54.217Z,1015.47
2023-04-27T11:48:54.136Z,1015.48
2023-04-27T11:49:54.117Z,1015.48
2023-04-27T11:50:54.128Z,1015.45
2023-04-27T11:51:54.127Z,1015.42
2023-04-27T11:52:54.118Z,1015.38
2023-04-27T11:53:54.075Z,1015.36
2023-04-27T11:54:54.065Z,1015.34
2023-04-27T11:55:54.073Z,1015.31
2023-04-27T11:56:54.059Z,1015.30
2023-04-27T11:57:54.052Z,1015.32
2023-04-27T11:58:54.033Z,1015.32
2023-04-27T11:59:54.143Z,1015.31
2023-04-27T12:00:54.007Z,1015.29
2023-04-27T12:01:54.013Z,1015.29
2023-04-27T12:02:54.299Z,1015.25
2023-04-27T12:03:54.121Z,1015.23
2023-04-27T12:04:54.181Z,1015.23